createdAt,value
2022-10-21T00:01:51.396Z,8.75
2022-10-21T00:06:53.094Z,8.95
2022-10-21T00:11:54.777Z,8.87
2022-10-21T00:16:56.451Z,8.95
2022-10-21T00:21:58.116Z,9.10
2022-10-21T00:26:59.788Z,9.07
2022-10-21T00:32:01.502Z,9.01
2022-10-21T00:37:03.291Z,9.15
2022-10-21T00:42:17.791Z,9.14
2022-10-21T00:47:22.681Z,9.00
2022-10-21T00:52:24.958Z,9.17
2022-10-21T00:57:28.363Z,9.25
2022-10-21T01:02:30.428Z,9.38
2022-10-21T01:07:35.344Z,9.21
2022-10-21T01:12:43.232Z,9.25
2022-10-21T01:18:15.733Z,9.52
2022-10-21T01:23:54.461Z,9.54
2022-10-21T01:29:15.241Z,9.56
2022-10-21T01:34:41.674Z,9.39
2022-10-21T01:39:50.966Z,9.49
2022-10-21T01:45:00.784Z,9.70
2022-10-21T01:50:08.375Z,9.76
2022-10-21T01:55:15.685Z,9.58
2022-10-21T02:00:17.645Z,9.55
2022-10-21T02:05:30.437Z,9.98
2022-10-21T02:10:37.045Z,9.99
2022-10-21T02:15:40.964Z,9.99
2022-10-21T02:20:50.640Z,10.01
2022-10-21T02:25:52.703Z,10.31
2022-10-21T02:30:59.783Z,9.79
2022-10-21T02:36:13.134Z,10.13
2022-10-21T02:41:22.026Z,9.89
2022-10-21T02:46:25.071Z,10.06
2022-10-21T02:51:26.748Z,9.88
2022-10-21T03:01:35.048Z,9.98
2022-10-21T03:06:36.712Z,10.15
2022-10-21T03:11:38.367Z,9.89
2022-10-21T03:16:40.066Z,10.16
2022-10-21T03:21:41.770Z,9.97
2022-10-21T03:26:43.437Z,10.08
2022-10-21T03:31:45.105Z,10.24
2022-10-21T03:36:46.824Z,10.22
2022-10-21T03:41:48.487Z,10.22
2022-10-21T03:46:50.144Z,10.06
2022-10-21T03:51:51.821Z,9.77
2022-10-21T03:56:53.496Z,9.70
2022-10-21T04:01:55.225Z,9.64
2022-10-21T04:06:56.938Z,9.45
2022-10-21T04:11:58.615Z,9.10
2022-10-21T04:17:06.750Z,8.94
2022-10-21T04:22:09.776Z,9.10
2022-10-21T04:27:11.446Z,9.17
2022-10-21T04:32:13.105Z,9.08
2022-10-21T04:37:14.781Z,8.87
2022-10-21T04:42:16.543Z,8.97
2022-10-21T04:47:18.295Z,9.06
2022-10-21T04:52:19.970Z,8.79
2022-10-21T04:57:21.642Z,8.76
2022-10-21T05:02:25.638Z,8.86
2022-10-21T05:07:27.790Z,8.89
2022-10-21T05:12:29.529Z,8.75
2022-10-21T05:17:31.225Z,8.66
2022-10-21T05:22:33.073Z,8.71
2022-10-21T05:27:34.739Z,8.65
2022-10-21T05:32:36.752Z,8.56
2022-10-21T05:37:38.841Z,8.51
2022-10-21T05:42:40.717Z,8.40
2022-10-21T05:47:43.111Z,8.34
2022-10-21T05:52:44.879Z,8.32
2022-10-21T05:57:46.850Z,8.51
2022-10-21T06:02:48.535Z,8.49
2022-10-21T06:07:50.229Z,8.32
2022-10-21T06:12:51.939Z,8.59
2022-10-21T06:17:53.662Z,8.65
2022-10-21T06:22:55.327Z,8.29
2022-10-21T06:27:57.021Z,8.70
2022-10-21T06:32:58.677Z,9.13
2022-10-21T06:38:00.321Z,8.76
2022-10-21T06:43:02.786Z,9.05
2022-10-21T06:48:04.681Z,9.50
2022-10-21T06:53:06.429Z,9.42
2022-10-21T06:58:08.105Z,9.71
2022-10-21T07:03:09.775Z,10.07
2022-10-21T07:08:12.753Z,10.64
2022-10-21T07:13:14.670Z,10.85
2022-10-21T07:18:16.332Z,11.35
2022-10-21T07:23:18.211Z,11.66
2022-10-21T07:28:19.895Z,12.00
2022-10-21T07:33:21.628Z,11.85
2022-10-21T07:38:23.370Z,11.45
2022-10-21T07:43:25.470Z,12.51
2022-10-21T07:48:28.566Z,13.25
2022-10-21T07:53:30.321Z,12.96
2022-10-21T07:58:32.168Z,12.61
2022-10-21T08:03:34.123Z,12.73
2022-10-21T08:08:36.620Z,13.27
2022-10-21T08:13:41.525Z,13.45
2022-10-21T08:18:43.245Z,13.51
2022-10-21T08:23:45.494Z,13.35
2022-10-21T08:28:47.271Z,13.21
2022-10-21T08:33:49.763Z,14.80
2022-10-21T08:38:52.342Z,14.55
2022-10-21T08:43:59.023Z,15.23
2022-10-21T08:49:10.626Z,16.22
2022-10-21T08:54:31.497Z,17.13
2022-10-21T08:59:33.381Z,18.43
2022-10-21T09:04:45.471Z,19.22
2022-10-21T09:10:00.692Z,18.93
2022-10-21T09:15:14.210Z,18.66
2022-10-21T09:20:40.397Z,16.73
2022-10-21T09:26:06.857Z,15.43
2022-10-21T09:31:21.677Z,15.49
2022-10-21T09:36:38.782Z,16.26
2022-10-21T09:41:48.116Z,16.13
2022-10-21T09:46:51.977Z,15.61
2022-10-21T09:51:54.276Z,16.05
2022-10-21T09:57:04.481Z,16.60
2022-10-21T10:02:08.384Z,17.62
2022-10-21T10:07:32.514Z,17.83
2022-10-21T10:12:34.167Z,19.91
2022-10-21T10:17:38.673Z,19.42
2022-10-21T10:23:08.377Z,17.87
2022-10-21T10:28:10.014Z,17.36
2022-10-21T10:33:23.192Z,17.58
2022-10-21T10:38:54.735Z,17.82
2022-10-21T10:43:57.775Z,18.41
2022-10-21T10:49:17.436Z,19.23
2022-10-21T10:54:29.580Z,20.07
2022-10-21T10:59:41.118Z,20.56
2022-10-21T11:05:06.988Z,20.42
2022-10-21T11:10:46.333Z,19.73
2022-10-21T11:16:24.724Z,17.90
2022-10-21T11:21:44.626Z,17.59
2022-10-21T11:26:52.285Z,17.51
2022-10-21T11:32:16.286Z,17.45
2022-10-21T11:37:23.681Z,17.28
2022-10-21T11:42:41.609Z,17.44
2022-10-21T11:47:54.931Z,17.34
2022-10-21T11:53:19.730Z,18.05
2022-10-21T11:58:46.329Z,18.33
2022-10-21T12:03:58.927Z,17.90
2022-10-21T12:09:06.318Z,17.13
2022-10-21T12:14:31.582Z,16.92
2022-10-21T12:19:36.015Z,17.01
2022-10-21T12:24:51.073Z,17.03
2022-10-21T12:30:24.821Z,17.01
2022-10-21T12:35:47.303Z,16.85
2022-10-21T12:40:51.005Z,16.53
2022-10-21T12:46:11.139Z,16.31
2022-10-21T12:51:39.310Z,16.05
2022-10-21T12:56:48.354Z,15.87
2022-10-21T13:02:05.054Z,15.67
2022-10-21T13:07:15.736Z,15.36
2022-10-21T13:12:23.308Z,15.24
2022-10-21T13:17:29.601Z,15.20
2022-10-21T13:22:34.542Z,15.23
2022-10-21T13:27:38.726Z,15.02
2022-10-21T13:32:41.822Z,14.74
2022-10-21T13:37:54.143Z,14.72
2022-10-21T13:43:00.011Z,14.50
2022-10-21T13:48:13.721Z,14.37
2022-10-21T13:53:18.460Z,14.23
2022-10-21T13:58:24.025Z,14.08
2022-10-21T14:03:26.527Z,13.72
2022-10-21T14:08:28.412Z,13.88
2022-10-21T14:13:35.891Z,13.92
2022-10-21T14:18:41.595Z,13.72
2022-10-21T14:23:45.676Z,13.62
2022-10-21T14:28:50.056Z,13.30
2022-10-21T14:33:51.802Z,13.48
2022-10-21T14:39:03.206Z,13.19
2022-10-21T14:44:14.789Z,12.92
2022-10-21T14:49:23.839Z,13.09
2022-10-21T14:54:38.325Z,13.15
2022-10-21T14:59:42.993Z,13.07
2022-10-21T15:04:59.060Z,12.74
2022-10-21T15:10:03.835Z,12.52
2022-10-21T15:15:40.799Z,12.57
2022-10-21T15:20:50.435Z,12.53
2022-10-21T15:25:56.020Z,12.39
2022-10-21T15:30:59.630Z,12.27
2022-10-21T15:36:02.694Z,12.21
2022-10-21T15:41:04.849Z,12.13
2022-10-21T15:46:06.582Z,12.08
2022-10-21T15:51:08.335Z,12.15
2022-10-21T15:56:14.833Z,12.19
2022-10-21T16:01:17.485Z,12.42
2022-10-21T16:06:21.157Z,12.43
2022-10-21T16:11:34.650Z,12.29
2022-10-21T16:16:48.544Z,11.98
2022-10-21T16:21:50.228Z,12.23
2022-10-21T16:26:52.056Z,12.08
2022-10-21T16:31:53.890Z,11.96
2022-10-21T16:36:55.859Z,12.06
2022-10-21T16:41:57.537Z,12.02
2022-10-21T16:46:59.245Z,12.21
2022-10-21T16:52:02.239Z,12.34
2022-10-21T16:57:07.020Z,12.47
2022-10-21T17:02:26.795Z,12.32
2022-10-21T17:07:30.625Z,12.47
2022-10-21T17:12:33.575Z,12.42
2022-10-21T17:17:36.697Z,12.22
2022-10-21T17:22:38.506Z,12.25
2022-10-21T17:27:40.582Z,12.20
2022-10-21T17:37:50.242Z,12.25
2022-10-21T17:42:52.664Z,12.11
2022-10-21T17:47:54.410Z,12.12
2022-10-21T17:52:56.120Z,12.05
2022-10-21T17:57:57.792Z,12.22
2022-10-21T18:02:59.448Z,12.07
2022-10-21T18:08:01.109Z,12.16
2022-10-21T18:13:02.845Z,12.33
2022-10-21T18:18:04.508Z,12.70
2022-10-21T18:23:06.184Z,12.55
2022-10-21T18:28:08.466Z,12.48
2022-10-21T18:33:10.569Z,12.76
2022-10-21T18:38:12.603Z,12.93
2022-10-21T18:43:15.011Z,13.02
2022-10-21T18:48:16.695Z,13.13
2022-10-21T18:53:18.574Z,13.16
2022-10-21T18:58:20.240Z,13.20
2022-10-21T19:03:22.561Z,13.22
2022-10-21T19:08:24.326Z,13.23
2022-10-21T19:18:28.598Z,13.43
2022-10-21T19:23:32.488Z,13.49
2022-10-21T19:28:35.381Z,13.56
2022-10-21T19:33:37.614Z,13.55
2022-10-21T19:38:44.445Z,13.53
2022-10-21T19:43:47.503Z,13.57
2022-10-21T19:48:49.796Z,13.67
2022-10-21T19:53:52.135Z,13.70
2022-10-21T19:58:53.830Z,13.77
2022-10-21T20:03:56.161Z,13.76
2022-10-21T20:09:00.718Z,13.81
2022-10-21T20:14:03.013Z,13.85
2022-10-21T20:19:06.764Z,14.00
2022-10-21T20:24:09.835Z,13.93
2022-10-21T20:29:13.314Z,13.97
2022-10-21T20:34:15.402Z,14.00
2022-10-21T20:39:17.570Z,14.01
2022-10-21T20:44:19.440Z,14.08
2022-10-21T20:49:21.097Z,14.00
2022-10-21T20:54:22.866Z,14.11
2022-10-21T20:59:24.929Z,14.08
2022-10-21T21:04:26.911Z,14.17
2022-10-21T21:09:44.043Z,14.18
2022-10-21T21:14:50.212Z,14.19
2022-10-21T21:19:51.982Z,14.12
2022-10-21T21:24:53.641Z,14.01
2022-10-21T21:29:55.354Z,14.07
2022-10-21T21:34:57.066Z,13.96
2022-10-21T21:39:58.721Z,13.89
2022-10-21T21:45:00.390Z,13.95
2022-10-21T21:50:02.101Z,13.99
2022-10-21T21:55:03.959Z,14.02
2022-10-21T22:00:07.501Z,14.14
2022-10-21T22:05:09.295Z,14.11
2022-10-21T22:10:11.138Z,14.17
2022-10-21T22:15:19.830Z,14.33
2022-10-21T22:20:35.045Z,14.31
2022-10-21T22:25:36.706Z,14.35
2022-10-21T22:30:38.355Z,14.24
2022-10-21T22:35:40.022Z,14.23
2022-10-21T22:40:41.725Z,14.20
2022-10-21T22:45:47.344Z,14.07
2022-10-21T22:50:49.673Z,14.03
2022-10-21T22:55:51.331Z,13.55
2022-10-21T23:00:53.003Z,12.91
2022-10-21T23:05:54.674Z,12.54
2022-10-21T23:10:56.898Z,12.53
2022-10-21T23:15:58.559Z,12.29
2022-10-21T23:21:00.252Z,12.11
2022-10-21T23:26:03.069Z,11.91
2022-10-21T23:31:04.936Z,11.93
2022-10-21T23:36:07.033Z,11.63
2022-10-21T23:41:08.719Z,11.71
2022-10-21T23:46:10.548Z,11.78
2022-10-21T23:51:12.275Z,11.82
2022-10-21T23:56:14.120Z,11.91
